KAXN

Chandler Field Airport

Alexandria, Minnesota, USA

KAXN 110853Z AUTO 22009KT 10SM OVC046 M02/M04 A2974 RMK AO2 SLP090 60000 T10221044 56038

Observed Flight Rules
Dec-11 @ 08:53 UTC (33 minutes ago) Visual Flight Rules
Wind Visibility Clouds
220° at 9 knots 10 miles
  • Overcast at 4,600' AGL
Temperatures Readings
Current -2°C / 28°F
Dewpoint -4°C / 25°F
Humidity 86%
Altimeter 29.74" Hg
Pressure 1009 hPa
Elevation 433
Observed Flight Rules
Dec-11 @ 08:53 UTC
(33 minutes ago)
VFR
Wind Visibility
220° at 9 knots 10 miles
Clouds
  • Overcast at 4,600' AGL
Temperature Dewpoint
-2°C / 28°F -4°C / 25°F
Humidity Altimeter Pressure
86% 29.74" Hg 1009 hPa